sensor_id;sensor_type;location;lat;lon;timestamp;temperature;humidity
47162;DHT22;32921;53.256;8.198;2024-03-07T00:02:20;3.10;99.90
47162;DHT22;32921;53.256;8.198;2024-03-07T00:04:45;3.10;99.90
47162;DHT22;32921;53.256;8.198;2024-03-07T00:07:11;3.10;99.90
47162;DHT22;32921;53.256;8.198;2024-03-07T00:09:37;3.10;99.90
47162;DHT22;32921;53.256;8.198;2024-03-07T00:12:04;3.20;99.90
47162;DHT22;32921;53.256;8.198;2024-03-07T00:14:31;3.20;99.90
47162;DHT22;32921;53.256;8.198;2024-03-07T00:16:58;3.10;99.90
47162;DHT22;32921;53.256;8.198;2024-03-07T00:19:27;3.20;99.90
47162;DHT22;32921;53.256;8.198;2024-03-07T00:21:53;3.20;99.90
47162;DHT22;32921;53.256;8.198;2024-03-07T00:24:20;3.20;99.90
47162;DHT22;32921;53.256;8.198;2024-03-07T00:26:46;3.20;99.90
47162;DHT22;32921;53.256;8.198;2024-03-07T00:29:12;3.10;99.90
47162;DHT22;32921;53.256;8.198;2024-03-07T00:31:37;3.20;99.90
47162;DHT22;32921;53.256;8.198;2024-03-07T00:34:03;3.20;99.90
47162;DHT22;32921;53.256;8.198;2024-03-07T00:36:28;3.20;99.90
47162;DHT22;32921;53.256;8.198;2024-03-07T00:38:54;3.20;99.90
47162;DHT22;32921;53.256;8.198;2024-03-07T00:41:20;3.20;99.90
47162;DHT22;32921;53.256;8.198;2024-03-07T00:43:46;3.20;99.90
47162;DHT22;32921;53.256;8.198;2024-03-07T00:46:12;3.10;99.90
47162;DHT22;32921;53.256;8.198;2024-03-07T00:48:38;3.20;99.90
47162;DHT22;32921;53.256;8.198;2024-03-07T00:51:04;3.10;99.90
47162;DHT22;32921;53.256;8.198;2024-03-07T00:53:30;3.10;99.90
47162;DHT22;32921;53.256;8.198;2024-03-07T00:55:56;3.20;99.90
47162;DHT22;32921;53.256;8.198;2024-03-07T00:58:22;3.20;99.90
47162;DHT22;32921;53.256;8.198;2024-03-07T01:00:48;3.10;99.90
47162;DHT22;32921;53.256;8.198;2024-03-07T01:03:13;3.00;99.90
47162;DHT22;32921;53.256;8.198;2024-03-07T01:05:42;3.00;99.90
47162;DHT22;32921;53.256;8.198;2024-03-07T01:08:07;3.00;99.90
47162;DHT22;32921;53.256;8.198;2024-03-07T01:10:33;2.90;99.90
47162;DHT22;32921;53.256;8.198;2024-03-07T01:12:59;2.90;99.90
47162;DHT22;32921;53.256;8.198;2024-03-07T01:15:31;2.90;99.90
47162;DHT22;32921;53.256;8.198;2024-03-07T01:17:57;2.90;99.90
47162;DHT22;32921;53.256;8.198;2024-03-07T01:20:23;2.80;99.90
47162;DHT22;32921;53.256;8.198;2024-03-07T01:22:53;2.70;99.90
47162;DHT22;32921;53.256;8.198;2024-03-07T01:25:19;2.70;99.90
47162;DHT22;32921;53.256;8.198;2024-03-07T01:27:45;2.70;99.90
47162;DHT22;32921;53.256;8.198;2024-03-07T01:30:12;2.70;99.90
47162;DHT22;32921;53.256;8.198;2024-03-07T01:32:38;2.70;99.90
47162;DHT22;32921;53.256;8.198;2024-03-07T01:35:04;2.70;99.90
47162;DHT22;32921;53.256;8.198;2024-03-07T01:37:32;2.60;99.90
47162;DHT22;32921;53.256;8.198;2024-03-07T01:39:58;2.60;99.90
47162;DHT22;32921;53.256;8.198;2024-03-07T01:42:23;2.60;99.90
47162;DHT22;32921;53.256;8.198;2024-03-07T01:44:50;2.60;99.90
47162;DHT22;32921;53.256;8.198;2024-03-07T01:47:17;2.50;99.90
47162;DHT22;32921;53.256;8.198;2024-03-07T01:49:43;2.50;99.90
47162;DHT22;32921;53.256;8.198;2024-03-07T01:52:10;2.40;99.90
47162;DHT22;32921;53.256;8.198;2024-03-07T01:54:36;2.40;99.90
47162;DHT22;32921;53.256;8.198;2024-03-07T01:57:02;2.30;99.90
47162;DHT22;32921;53.256;8.198;2024-03-07T01:59:29;2.20;99.90
47162;DHT22;32921;53.256;8.198;2024-03-07T02:01:56;2.20;99.90
47162;DHT22;32921;53.256;8.198;2024-03-07T02:04:22;2.00;99.90
47162;DHT22;32921;53.256;8.198;2024-03-07T02:06:49;1.90;99.90
47162;DHT22;32921;53.256;8.198;2024-03-07T02:09:15;1.80;99.90
47162;DHT22;32921;53.256;8.198;2024-03-07T02:11:41;1.80;99.90
47162;DHT22;32921;53.256;8.198;2024-03-07T02:14:06;1.60;99.90
47162;DHT22;32921;53.256;8.198;2024-03-07T02:16:32;1.60;99.90
47162;DHT22;32921;53.256;8.198;2024-03-07T02:18:58;1.50;99.90
47162;DHT22;32921;53.256;8.198;2024-03-07T02:21:25;1.40;99.90
47162;DHT22;32921;53.256;8.198;2024-03-07T02:23:50;1.40;99.90
47162;DHT22;32921;53.256;8.198;2024-03-07T02:26:16;1.30;99.90
47162;DHT22;32921;53.256;8.198;2024-03-07T02:28:42;1.30;99.90
47162;DHT22;32921;53.256;8.198;2024-03-07T02:31:07;1.20;99.90
47162;DHT22;32921;53.256;8.198;2024-03-07T02:33:33;1.10;99.90
47162;DHT22;32921;53.256;8.198;2024-03-07T02:35:59;1.00;99.90
47162;DHT22;32921;53.256;8.198;2024-03-07T02:38:24;1.00;99.90
47162;DHT22;32921;53.256;8.198;2024-03-07T02:40:50;0.90;99.90
47162;DHT22;32921;53.256;8.198;2024-03-07T02:43:15;0.80;99.90
47162;DHT22;32921;53.256;8.198;2024-03-07T02:45:41;0.90;99.90
47162;DHT22;32921;53.256;8.198;2024-03-07T02:48:07;1.00;99.90
47162;DHT22;32921;53.256;8.198;2024-03-07T02:50:35;1.00;99.90
47162;DHT22;32921;53.256;8.198;2024-03-07T02:53:03;0.90;99.90
47162;DHT22;32921;53.256;8.198;2024-03-07T02:55:29;1.00;99.90
47162;DHT22;32921;53.256;8.198;2024-03-07T02:57:55;1.00;99.90
47162;DHT22;32921;53.256;8.198;2024-03-07T03:00:24;1.00;99.90
47162;DHT22;32921;53.256;8.198;2024-03-07T03:02:55;0.80;99.90
47162;DHT22;32921;53.256;8.198;2024-03-07T03:05:22;0.80;99.90
47162;DHT22;32921;53.256;8.198;2024-03-07T03:07:48;0.80;99.90
47162;DHT22;32921;53.256;8.198;2024-03-07T03:10:27;0.80;99.90
47162;DHT22;32921;53.256;8.198;2024-03-07T03:12:55;0.80;99.90
47162;DHT22;32921;53.256;8.198;2024-03-07T03:15:24;0.80;99.90
47162;DHT22;32921;53.256;8.198;2024-03-07T03:17:50;0.90;99.90
47162;DHT22;32921;53.256;8.198;2024-03-07T03:20:17;0.90;99.90
47162;DHT22;32921;53.256;8.198;2024-03-07T03:22:56;0.90;99.90
47162;DHT22;32921;53.256;8.198;2024-03-07T03:25:22;0.90;99.90
47162;DHT22;32921;53.256;8.198;2024-03-07T03:27:49;1.00;99.90
47162;DHT22;32921;53.256;8.198;2024-03-07T03:30:15;1.00;99.90
47162;DHT22;32921;53.256;8.198;2024-03-07T03:32:44;1.00;99.90
47162;DHT22;32921;53.256;8.198;2024-03-07T03:35:10;1.00;99.90
47162;DHT22;32921;53.256;8.198;2024-03-07T03:37:39;1.00;99.90
47162;DHT22;32921;53.256;8.198;2024-03-07T03:40:07;1.00;99.90
47162;DHT22;32921;53.256;8.198;2024-03-07T03:42:35;0.90;99.90
47162;DHT22;32921;53.256;8.198;2024-03-07T03:45:01;0.90;99.90
47162;DHT22;32921;53.256;8.198;2024-03-07T03:47:35;0.90;99.90
47162;DHT22;32921;53.256;8.198;2024-03-07T03:50:05;0.90;99.90
47162;DHT22;32921;53.256;8.198;2024-03-07T03:52:31;1.00;99.90
47162;DHT22;32921;53.256;8.198;2024-03-07T03:54:58;1.10;99.90
47162;DHT22;32921;53.256;8.198;2024-03-07T03:57:24;1.10;99.90
47162;DHT22;32921;53.256;8.198;2024-03-07T03:59:50;1.20;99.90
47162;DHT22;32921;53.256;8.198;2024-03-07T04:02:15;1.10;99.90
47162;DHT22;32921;53.256;8.198;2024-03-07T04:04:42;1.10;99.90
47162;DHT22;32921;53.256;8.198;2024-03-07T04:07:08;1.10;99.90
47162;DHT22;32921;53.256;8.198;2024-03-07T04:09:33;1.20;99.90
47162;DHT22;32921;53.256;8.198;2024-03-07T04:11:59;1.30;99.90
47162;DHT22;32921;53.256;8.198;2024-03-07T04:14:26;1.30;99.90
47162;DHT22;32921;53.256;8.198;2024-03-07T04:16:51;1.20;99.90
47162;DHT22;32921;53.256;8.198;2024-03-07T04:19:20;1.20;99.90
47162;DHT22;32921;53.256;8.198;2024-03-07T04:21:46;1.20;99.90
47162;DHT22;32921;53.256;8.198;2024-03-07T04:24:12;1.20;99.90
47162;DHT22;32921;53.256;8.198;2024-03-07T04:26:38;1.30;99.90
47162;DHT22;32921;53.256;8.198;2024-03-07T04:29:07;1.30;99.90
47162;DHT22;32921;53.256;8.198;2024-03-07T04:31:34;1.30;99.90
47162;DHT22;32921;53.256;8.198;2024-03-07T04:34:00;1.30;99.90
47162;DHT22;32921;53.256;8.198;2024-03-07T04:36:25;1.40;99.90
47162;DHT22;32921;53.256;8.198;2024-03-07T04:38:52;1.40;99.90
47162;DHT22;32921;53.256;8.198;2024-03-07T04:41:18;1.40;99.90
47162;DHT22;32921;53.256;8.198;2024-03-07T04:43:44;1.50;99.90
47162;DHT22;32921;53.256;8.198;2024-03-07T04:46:10;1.60;99.90
47162;DHT22;32921;53.256;8.198;2024-03-07T04:48:36;1.60;99.90
47162;DHT22;32921;53.256;8.198;2024-03-07T04:51:02;1.60;99.90
47162;DHT22;32921;53.256;8.198;2024-03-07T04:53:29;1.60;99.90
47162;DHT22;32921;53.256;8.198;2024-03-07T04:55:54;1.60;99.90
47162;DHT22;32921;53.256;8.198;2024-03-07T04:58:21;1.60;99.90
47162;DHT22;32921;53.256;8.198;2024-03-07T05:00:47;1.60;99.90
47162;DHT22;32921;53.256;8.198;2024-03-07T05:03:13;1.50;99.90
47162;DHT22;32921;53.256;8.198;2024-03-07T05:05:38;1.60;99.90
47162;DHT22;32921;53.256;8.198;2024-03-07T05:08:04;1.60;99.90
47162;DHT22;32921;53.256;8.198;2024-03-07T05:10:30;1.70;99.90
47162;DHT22;32921;53.256;8.198;2024-03-07T05:12:56;1.70;99.90
47162;DHT22;32921;53.256;8.198;2024-03-07T05:15:24;1.70;99.90
47162;DHT22;32921;53.256;8.198;2024-03-07T05:17:52;1.70;99.90
47162;DHT22;32921;53.256;8.198;2024-03-07T05:20:18;1.70;99.90
47162;DHT22;32921;53.256;8.198;2024-03-07T05:22:43;1.80;99.90
47162;DHT22;32921;53.256;8.198;2024-03-07T05:25:10;1.80;99.90
47162;DHT22;32921;53.256;8.198;2024-03-07T05:27:35;1.80;99.90
47162;DHT22;32921;53.256;8.198;2024-03-07T05:30:02;1.90;99.90
47162;DHT22;32921;53.256;8.198;2024-03-07T05:32:31;1.90;99.90
47162;DHT22;32921;53.256;8.198;2024-03-07T05:34:58;1.90;99.90
47162;DHT22;32921;53.256;8.198;2024-03-07T05:37:23;1.90;99.90
47162;DHT22;32921;53.256;8.198;2024-03-07T05:39:50;2.00;99.90
47162;DHT22;32921;53.256;8.198;2024-03-07T05:42:15;1.90;99.90
47162;DHT22;32921;53.256;8.198;2024-03-07T05:44:42;2.00;99.90
47162;DHT22;32921;53.256;8.198;2024-03-07T05:47:08;2.00;99.90
47162;DHT22;32921;53.256;8.198;2024-03-07T05:49:34;2.00;99.90
47162;DHT22;32921;53.256;8.198;2024-03-07T05:52:00;1.90;99.90
47162;DHT22;32921;53.256;8.198;2024-03-07T05:54:25;1.90;99.90
47162;DHT22;32921;53.256;8.198;2024-03-07T05:56:51;2.00;99.90
47162;DHT22;32921;53.256;8.198;2024-03-07T05:59:17;2.00;99.90
47162;DHT22;32921;53.256;8.198;2024-03-07T06:01:42;2.00;99.90
47162;DHT22;32921;53.256;8.198;2024-03-07T06:04:09;2.00;99.90
47162;DHT22;32921;53.256;8.198;2024-03-07T06:06:36;2.10;99.90
47162;DHT22;32921;53.256;8.198;2024-03-07T06:09:04;2.10;99.90
47162;DHT22;32921;53.256;8.198;2024-03-07T06:11:39;2.10;99.90
47162;DHT22;32921;53.256;8.198;2024-03-07T06:14:09;2.10;99.90
47162;DHT22;32921;53.256;8.198;2024-03-07T06:16:38;2.20;99.90
47162;DHT22;32921;53.256;8.198;2024-03-07T06:19:06;2.20;99.90
47162;DHT22;32921;53.256;8.198;2024-03-07T06:21:36;2.20;99.90
47162;DHT22;32921;53.256;8.198;2024-03-07T06:24:02;2.20;99.90
47162;DHT22;32921;53.256;8.198;2024-03-07T06:26:29;2.20;99.90
47162;DHT22;32921;53.256;8.198;2024-03-07T06:29:10;2.20;99.90
47162;DHT22;32921;53.256;8.198;2024-03-07T06:31:39;2.20;99.90
47162;DHT22;32921;53.256;8.198;2024-03-07T06:34:05;2.30;99.90
47162;DHT22;32921;53.256;8.198;2024-03-07T06:36:32;2.20;99.90
47162;DHT22;32921;53.256;8.198;2024-03-07T06:38:58;2.30;99.90
47162;DHT22;32921;53.256;8.198;2024-03-07T06:41:23;2.30;99.90
47162;DHT22;32921;53.256;8.198;2024-03-07T06:43:50;2.40;99.90
47162;DHT22;32921;53.256;8.198;2024-03-07T06:46:16;2.30;99.90
47162;DHT22;32921;53.256;8.198;2024-03-07T06:48:42;2.30;99.90
47162;DHT22;32921;53.256;8.198;2024-03-07T06:51:08;2.30;99.90
47162;DHT22;32921;53.256;8.198;2024-03-07T06:53:33;2.40;99.90
47162;DHT22;32921;53.256;8.198;2024-03-07T06:56:00;2.40;99.90
47162;DHT22;32921;53.256;8.198;2024-03-07T06:58:26;2.40;99.90
47162;DHT22;32921;53.256;8.198;2024-03-07T07:00:52;2.40;99.90
47162;DHT22;32921;53.256;8.198;2024-03-07T07:03:22;2.50;99.90
47162;DHT22;32921;53.256;8.198;2024-03-07T07:05:49;2.50;99.90
47162;DHT22;32921;53.256;8.198;2024-03-07T07:08:15;2.50;99.90
47162;DHT22;32921;53.256;8.198;2024-03-07T07:10:42;2.50;99.90
47162;DHT22;32921;53.256;8.198;2024-03-07T07:13:08;2.60;99.90
47162;DHT22;32921;53.256;8.198;2024-03-07T07:15:34;2.60;99.90
47162;DHT22;32921;53.256;8.198;2024-03-07T07:18:02;2.70;99.90
47162;DHT22;32921;53.256;8.198;2024-03-07T07:20:28;2.70;99.90
47162;DHT22;32921;53.256;8.198;2024-03-07T07:22:54;2.80;99.90
47162;DHT22;32921;53.256;8.198;2024-03-07T07:25:20;2.80;99.90
47162;DHT22;32921;53.256;8.198;2024-03-07T07:27:47;2.80;99.90
47162;DHT22;32921;53.256;8.198;2024-03-07T07:30:18;2.90;99.90
47162;DHT22;32921;53.256;8.198;2024-03-07T07:32:45;2.90;99.90
47162;DHT22;32921;53.256;8.198;2024-03-07T07:35:11;3.00;99.90
47162;DHT22;32921;53.256;8.198;2024-03-07T07:37:47;3.10;99.90
47162;DHT22;32921;53.256;8.198;2024-03-07T07:40:18;3.10;99.90
47162;DHT22;32921;53.256;8.198;2024-03-07T07:42:45;3.20;99.90
47162;DHT22;32921;53.256;8.198;2024-03-07T07:45:13;3.40;99.90
47162;DHT22;32921;53.256;8.198;2024-03-07T07:47:39;3.40;99.90
47162;DHT22;32921;53.256;8.198;2024-03-07T07:50:12;3.30;99.90
47162;DHT22;32921;53.256;8.198;2024-03-07T07:55:14;3.50;99.90
47162;DHT22;32921;53.256;8.198;2024-03-07T07:57:48;3.60;99.90
47162;DHT22;32921;53.256;8.198;2024-03-07T08:00:15;3.80;99.90
47162;DHT22;32921;53.256;8.198;2024-03-07T08:02:49;3.80;99.90
47162;DHT22;32921;53.256;8.198;2024-03-07T08:05:15;4.00;99.90
47162;DHT22;32921;53.256;8.198;2024-03-07T08:07:44;4.10;99.90
47162;DHT22;32921;53.256;8.198;2024-03-07T08:10:09;4.20;99.90
47162;DHT22;32921;53.256;8.198;2024-03-07T08:12:35;4.40;99.90
47162;DHT22;32921;53.256;8.198;2024-03-07T08:15:06;4.40;99.90
47162;DHT22;32921;53.256;8.198;2024-03-07T08:17:31;4.60;99.90
47162;DHT22;32921;53.256;8.198;2024-03-07T08:19:57;4.60;99.90
47162;DHT22;32921;53.256;8.198;2024-03-07T08:22:23;4.60;99.90
47162;DHT22;32921;53.256;8.198;2024-03-07T08:24:50;4.50;99.90
47162;DHT22;32921;53.256;8.198;2024-03-07T08:27:16;4.50;99.90
47162;DHT22;32921;53.256;8.198;2024-03-07T08:29:41;4.60;99.90
47162;DHT22;32921;53.256;8.198;2024-03-07T08:32:07;4.60;99.90
47162;DHT22;32921;53.256;8.198;2024-03-07T08:34:33;4.70;99.90
47162;DHT22;32921;53.256;8.198;2024-03-07T08:36:58;4.80;99.90
47162;DHT22;32921;53.256;8.198;2024-03-07T08:39:24;5.00;99.90
47162;DHT22;32921;53.256;8.198;2024-03-07T08:41:50;5.10;99.90
47162;DHT22;32921;53.256;8.198;2024-03-07T08:44:15;5.20;99.90
47162;DHT22;32921;53.256;8.198;2024-03-07T08:46:41;5.20;99.90
47162;DHT22;32921;53.256;8.198;2024-03-07T08:49:07;5.10;99.90
47162;DHT22;32921;53.256;8.198;2024-03-07T08:51:32;5.00;99.90
47162;DHT22;32921;53.256;8.198;2024-03-07T08:53:58;4.80;99.90
47162;DHT22;32921;53.256;8.198;2024-03-07T08:56:24;4.60;99.90
47162;DHT22;32921;53.256;8.198;2024-03-07T08:58:50;4.70;99.90
47162;DHT22;32921;53.256;8.198;2024-03-07T09:01:15;4.80;99.90
47162;DHT22;32921;53.256;8.198;2024-03-07T09:03:41;4.70;99.90
47162;DHT22;32921;53.256;8.198;2024-03-07T09:06:06;4.60;99.90
47162;DHT22;32921;53.256;8.198;2024-03-07T09:08:32;4.50;99.90
47162;DHT22;32921;53.256;8.198;2024-03-07T09:10:58;4.50;99.90
47162;DHT22;32921;53.256;8.198;2024-03-07T09:13:23;4.60;99.90
47162;DHT22;32921;53.256;8.198;2024-03-07T09:15:49;4.70;99.90
47162;DHT22;32921;53.256;8.198;2024-03-07T09:18:15;4.90;99.90
47162;DHT22;32921;53.256;8.198;2024-03-07T09:20:41;5.50;99.90
47162;DHT22;32921;53.256;8.198;2024-03-07T09:23:07;5.70;99.90
47162;DHT22;32921;53.256;8.198;2024-03-07T09:25:32;5.80;99.90
47162;DHT22;32921;53.256;8.198;2024-03-07T09:27:59;5.70;99.90
47162;DHT22;32921;53.256;8.198;2024-03-07T09:30:26;5.90;99.90
47162;DHT22;32921;53.256;8.198;2024-03-07T09:32:56;5.80;99.90
47162;DHT22;32921;53.256;8.198;2024-03-07T09:35:21;5.70;99.90
47162;DHT22;32921;53.256;8.198;2024-03-07T09:37:47;5.80;99.90
47162;DHT22;32921;53.256;8.198;2024-03-07T09:40:13;6.00;99.90
47162;DHT22;32921;53.256;8.198;2024-03-07T09:42:48;5.90;99.90
47162;DHT22;32921;53.256;8.198;2024-03-07T09:45:16;5.90;99.90
47162;DHT22;32921;53.256;8.198;2024-03-07T09:47:44;6.10;99.90
47162;DHT22;32921;53.256;8.198;2024-03-07T09:50:11;5.80;99.90
47162;DHT22;32921;53.256;8.198;2024-03-07T09:52:37;5.70;99.90
47162;DHT22;32921;53.256;8.198;2024-03-07T09:55:06;6.00;99.90
47162;DHT22;32921;53.256;8.198;2024-03-07T09:57:34;6.20;99.90
47162;DHT22;32921;53.256;8.198;2024-03-07T10:00:02;6.20;99.90
47162;DHT22;32921;53.256;8.198;2024-03-07T10:02:29;5.90;99.90
47162;DHT22;32921;53.256;8.198;2024-03-07T10:04:57;5.80;99.90
47162;DHT22;32921;53.256;8.198;2024-03-07T10:07:23;5.90;99.90
47162;DHT22;32921;53.256;8.198;2024-03-07T10:09:49;6.10;99.90
47162;DHT22;32921;53.256;8.198;2024-03-07T10:12:17;5.80;99.90
47162;DHT22;32921;53.256;8.198;2024-03-07T10:14:51;6.10;99.90
47162;DHT22;32921;53.256;8.198;2024-03-07T10:17:19;6.40;99.90
47162;DHT22;32921;53.256;8.198;2024-03-07T10:19:47;6.80;99.90
47162;DHT22;32921;53.256;8.198;2024-03-07T10:22:15;6.80;99.90
47162;DHT22;32921;53.256;8.198;2024-03-07T10:24:55;6.70;99.90
47162;DHT22;32921;53.256;8.198;2024-03-07T10:27:22;6.80;99.90
47162;DHT22;32921;53.256;8.198;2024-03-07T10:29:48;6.60;99.90
47162;DHT22;32921;53.256;8.198;2024-03-07T10:32:19;6.60;99.90
47162;DHT22;32921;53.256;8.198;2024-03-07T10:34:45;6.80;99.90
47162;DHT22;32921;53.256;8.198;2024-03-07T10:37:13;6.70;99.90
47162;DHT22;32921;53.256;8.198;2024-03-07T10:39:45;6.90;99.90
47162;DHT22;32921;53.256;8.198;2024-03-07T10:42:15;7.30;99.90
47162;DHT22;32921;53.256;8.198;2024-03-07T10:44:43;6.50;99.90
47162;DHT22;32921;53.256;8.198;2024-03-07T10:47:15;6.70;99.90
47162;DHT22;32921;53.256;8.198;2024-03-07T10:49:55;6.90;99.90
47162;DHT22;32921;53.256;8.198;2024-03-07T10:53:01;7.10;99.90
47162;DHT22;32921;53.256;8.198;2024-03-07T10:55:34;7.00;99.90
47162;DHT22;32921;53.256;8.198;2024-03-07T10:58:10;7.10;99.90
47162;DHT22;32921;53.256;8.198;2024-03-07T11:00:42;7.50;99.90
47162;DHT22;32921;53.256;8.198;2024-03-07T11:03:11;7.60;99.90
47162;DHT22;32921;53.256;8.198;2024-03-07T11:05:37;7.60;99.90
47162;DHT22;32921;53.256;8.198;2024-03-07T11:08:03;7.50;99.90
47162;DHT22;32921;53.256;8.198;2024-03-07T11:10:39;7.30;99.90
47162;DHT22;32921;53.256;8.198;2024-03-07T11:13:07;6.60;99.90
47162;DHT22;32921;53.256;8.198;2024-03-07T11:15:35;6.40;99.90
47162;DHT22;32921;53.256;8.198;2024-03-07T11:18:01;6.50;99.90
47162;DHT22;32921;53.256;8.198;2024-03-07T11:20:37;6.20;99.90
47162;DHT22;32921;53.256;8.198;2024-03-07T11:23:32;6.50;99.90
47162;DHT22;32921;53.256;8.198;2024-03-07T11:26:05;7.10;99.90
47162;DHT22;32921;53.256;8.198;2024-03-07T11:28:42;6.70;99.90
47162;DHT22;32921;53.256;8.198;2024-03-07T11:31:15;6.50;99.90
47162;DHT22;32921;53.256;8.198;2024-03-07T11:33:41;7.10;99.90
47162;DHT22;32921;53.256;8.198;2024-03-07T11:36:09;6.90;99.90
47162;DHT22;32921;53.256;8.198;2024-03-07T11:38:48;7.10;99.90
47162;DHT22;32921;53.256;8.198;2024-03-07T11:41:19;6.80;99.90
47162;DHT22;32921;53.256;8.198;2024-03-07T11:43:44;7.20;99.90
47162;DHT22;32921;53.256;8.198;2024-03-07T11:46:10;7.00;99.90
47162;DHT22;32921;53.256;8.198;2024-03-07T11:48:42;7.10;99.90
47162;DHT22;32921;53.256;8.198;2024-03-07T11:51:07;7.50;99.90
47162;DHT22;32921;53.256;8.198;2024-03-07T11:53:38;6.90;99.90
47162;DHT22;32921;53.256;8.198;2024-03-07T11:56:04;6.50;99.90
47162;DHT22;32921;53.256;8.198;2024-03-07T11:58:38;6.10;99.90
47162;DHT22;32921;53.256;8.198;2024-03-07T12:01:06;6.50;99.90
47162;DHT22;32921;53.256;8.198;2024-03-07T12:03:36;7.50;99.90
47162;DHT22;32921;53.256;8.198;2024-03-07T12:06:03;8.20;99.90
47162;DHT22;32921;53.256;8.198;2024-03-07T12:08:29;8.20;99.90
47162;DHT22;32921;53.256;8.198;2024-03-07T12:10:55;8.80;93.50
47162;DHT22;32921;53.256;8.198;2024-03-07T12:13:22;8.60;91.10
47162;DHT22;32921;53.256;8.198;2024-03-07T12:15:48;8.70;86.50
47162;DHT22;32921;53.256;8.198;2024-03-07T12:18:24;9.10;87.00
47162;DHT22;32921;53.256;8.198;2024-03-07T12:20:50;10.30;81.80
47162;DHT22;32921;53.256;8.198;2024-03-07T12:23:21;10.60;71.50
47162;DHT22;32921;53.256;8.198;2024-03-07T12:25:47;10.20;70.80
47162;DHT22;32921;53.256;8.198;2024-03-07T12:28:14;9.70;68.70
47162;DHT22;32921;53.256;8.198;2024-03-07T12:30:55;9.60;69.40
47162;DHT22;32921;53.256;8.198;2024-03-07T12:33:22;8.70;69.20
47162;DHT22;32921;53.256;8.198;2024-03-07T12:35:55;8.50;71.90
47162;DHT22;32921;53.256;8.198;2024-03-07T12:38:31;7.60;74.70
47162;DHT22;32921;53.256;8.198;2024-03-07T12:41:06;7.50;78.00
47162;DHT22;32921;53.256;8.198;2024-03-07T12:43:32;7.20;79.00
47162;DHT22;32921;53.256;8.198;2024-03-07T12:45:58;7.80;83.00
47162;DHT22;32921;53.256;8.198;2024-03-07T12:48:25;9.60;75.40
47162;DHT22;32921;53.256;8.198;2024-03-07T12:50:51;9.70;70.40
47162;DHT22;32921;53.256;8.198;2024-03-07T12:53:23;10.00;69.70
47162;DHT22;32921;53.256;8.198;2024-03-07T12:55:51;9.40;67.20
47162;DHT22;32921;53.256;8.198;2024-03-07T12:58:17;8.60;71.20
47162;DHT22;32921;53.256;8.198;2024-03-07T13:00:45;9.00;73.10
47162;DHT22;32921;53.256;8.198;2024-03-07T13:03:10;9.90;66.90
47162;DHT22;32921;53.256;8.198;2024-03-07T13:05:37;8.50;70.30
47162;DHT22;32921;53.256;8.198;2024-03-07T13:08:09;8.90;68.80
47162;DHT22;32921;53.256;8.198;2024-03-07T13:10:42;8.10;73.50
47162;DHT22;32921;53.256;8.198;2024-03-07T13:13:08;7.60;79.60
47162;DHT22;32921;53.256;8.198;2024-03-07T13:15:39;7.70;79.90
47162;DHT22;32921;53.256;8.198;2024-03-07T13:18:05;8.10;78.60
47162;DHT22;32921;53.256;8.198;2024-03-07T13:20:31;7.60;79.60
47162;DHT22;32921;53.256;8.198;2024-03-07T13:22:57;6.90;84.00
47162;DHT22;32921;53.256;8.198;2024-03-07T13:25:26;7.10;86.00
47162;DHT22;32921;53.256;8.198;2024-03-07T13:28:16;7.80;84.70
47162;DHT22;32921;53.256;8.198;2024-03-07T13:30:44;8.10;80.00
47162;DHT22;32921;53.256;8.198;2024-03-07T13:33:11;7.50;82.30
47162;DHT22;32921;53.256;8.198;2024-03-07T13:35:40;7.50;84.80
47162;DHT22;32921;53.256;8.198;2024-03-07T13:38:06;7.60;86.00
47162;DHT22;32921;53.256;8.198;2024-03-07T13:40:32;7.50;84.20
47162;DHT22;32921;53.256;8.198;2024-03-07T13:43:04;7.20;86.90
47162;DHT22;32921;53.256;8.198;2024-03-07T13:45:32;6.80;90.60
47162;DHT22;32921;53.256;8.198;2024-03-07T13:47:59;6.90;92.70
47162;DHT22;32921;53.256;8.198;2024-03-07T13:50:26;6.60;90.70
47162;DHT22;32921;53.256;8.198;2024-03-07T13:52:54;6.20;91.10
47162;DHT22;32921;53.256;8.198;2024-03-07T14:01:43;6.70;95.30
47162;DHT22;32921;53.256;8.198;2024-03-07T14:16:50;7.20;97.30
47162;DHT22;32921;53.256;8.198;2024-03-07T14:22:24;6.90;96.90
47162;DHT22;32921;53.256;8.198;2024-03-07T14:25:17;6.50;98.00
47162;DHT22;32921;53.256;8.198;2024-03-07T14:30:54;6.40;99.90
47162;DHT22;32921;53.256;8.198;2024-03-07T14:33:47;6.70;99.90
47162;DHT22;32921;53.256;8.198;2024-03-07T14:36:15;6.40;99.90
47162;DHT22;32921;53.256;8.198;2024-03-07T14:38:51;6.00;99.90
47162;DHT22;32921;53.256;8.198;2024-03-07T14:44:04;6.00;99.90
47162;DHT22;32921;53.256;8.198;2024-03-07T14:46:33;6.10;99.90
47162;DHT22;32921;53.256;8.198;2024-03-07T14:48:59;6.10;99.90
47162;DHT22;32921;53.256;8.198;2024-03-07T14:51:25;5.80;99.90
47162;DHT22;32921;53.256;8.198;2024-03-07T14:53:51;5.70;99.90
47162;DHT22;32921;53.256;8.198;2024-03-07T14:56:17;5.60;99.90
47162;DHT22;32921;53.256;8.198;2024-03-07T14:58:45;5.40;99.90
47162;DHT22;32921;53.256;8.198;2024-03-07T15:01:12;5.40;99.90
47162;DHT22;32921;53.256;8.198;2024-03-07T15:03:38;5.30;99.90
47162;DHT22;32921;53.256;8.198;2024-03-07T15:06:05;5.30;99.90
47162;DHT22;32921;53.256;8.198;2024-03-07T15:08:33;5.20;99.90
47162;DHT22;32921;53.256;8.198;2024-03-07T15:11:15;5.20;99.90
47162;DHT22;32921;53.256;8.198;2024-03-07T15:13:46;5.20;99.90
47162;DHT22;32921;53.256;8.198;2024-03-07T15:16:13;5.20;99.90
47162;DHT22;32921;53.256;8.198;2024-03-07T15:18:38;5.20;99.90
47162;DHT22;32921;53.256;8.198;2024-03-07T15:21:04;5.20;99.90
47162;DHT22;32921;53.256;8.198;2024-03-07T15:23:31;5.20;99.90
47162;DHT22;32921;53.256;8.198;2024-03-07T15:25:56;5.30;99.90
47162;DHT22;32921;53.256;8.198;2024-03-07T15:28:22;5.20;99.90
47162;DHT22;32921;53.256;8.198;2024-03-07T15:30:49;5.10;99.90
47162;DHT22;32921;53.256;8.198;2024-03-07T15:33:15;5.20;99.90
47162;DHT22;32921;53.256;8.198;2024-03-07T15:35:41;5.10;99.90
47162;DHT22;32921;53.256;8.198;2024-03-07T15:38:06;5.00;99.90
47162;DHT22;32921;53.256;8.198;2024-03-07T15:40:33;5.00;99.90
47162;DHT22;32921;53.256;8.198;2024-03-07T15:42:59;5.00;99.90
47162;DHT22;32921;53.256;8.198;2024-03-07T15:45:27;5.10;99.90
47162;DHT22;32921;53.256;8.198;2024-03-07T15:47:54;5.10;99.90
47162;DHT22;32921;53.256;8.198;2024-03-07T15:50:21;4.90;99.90
47162;DHT22;32921;53.256;8.198;2024-03-07T15:52:51;4.90;99.90
47162;DHT22;32921;53.256;8.198;2024-03-07T15:55:17;4.80;99.90
47162;DHT22;32921;53.256;8.198;2024-03-07T15:57:46;4.90;99.90
47162;DHT22;32921;53.256;8.198;2024-03-07T16:00:15;4.90;99.90
47162;DHT22;32921;53.256;8.198;2024-03-07T16:02:56;4.90;99.90
47162;DHT22;32921;53.256;8.198;2024-03-07T16:05:26;4.80;99.90
47162;DHT22;32921;53.256;8.198;2024-03-07T16:07:54;4.80;99.90
47162;DHT22;32921;53.256;8.198;2024-03-07T16:10:22;4.80;99.90
47162;DHT22;32921;53.256;8.198;2024-03-07T16:12:49;4.90;99.90
47162;DHT22;32921;53.256;8.198;2024-03-07T16:15:15;4.90;99.90
47162;DHT22;32921;53.256;8.198;2024-03-07T16:17:41;4.90;99.90
47162;DHT22;32921;53.256;8.198;2024-03-07T16:20:07;5.00;99.90